EDDTEDDC

Guest
Details From EDDT - Berlin Tegel
To EDDC - Dresden
Flight Number -
Tags Generated
Created
Modified
Stats Distance 88 nm / 163 km
Max Altitude 0 ft / 0 m
Waypoints 2
Social Downloads 6
Likes 0
Share VATSIM

Download

Looking for another format? Having issues loading an existing format? Contact us
Advertisement - Login to hide

Notes

Generated

Route

EDDT EDDC

ID Type Via Altitude Latitude Longitude Leg Dist Tot Dist Heading (true) Name
O EDDT APT - 0 ft / 0 m 52.55668˚ 13.27499˚ - 0 nm - -
O EDDC APT - 0 ft / 0 m 51.12425˚ 13.75544˚ 87 nm 87 nm 168° / 168° -

Altitude Profile

Advertisement - Login to hide

EDDT

Details ICAO EDDT (TXL)
Name Berlin Tegel
Region Germany - Civil
Timezone Europe/Berlin (UTC+2.0)
Stats Elevation 122 ft / 37 m (AMSL)
Location 52.559100° 13.290188°
Runways 2
Magnetic Variation 3.811° E

METAR

EDDT 250150Z 07007KT 040V110 CAVOK 17/09 Q1022

Decode

TAF

TAF EDDT 242300Z 2500/2524 07008KT CAVOK

Decode

Departure Runways

ID Width Length Bearing (true) Bearing (mag) Surface Threshold Offset Overrun Length
08L 151 ft / 46 m 9,885 ft / 3,013 m 80.83° 77.02° Asphalt 0 ft / 0 m 226 ft / 69 m
08R 151 ft / 46 m 7,923 ft / 2,415 m 80.84° 77.03° Asphalt 341 ft / 104 m 207 ft / 63 m
26L 151 ft / 46 m 7,923 ft / 2,415 m 260.87° 257.06° Asphalt 722 ft / 220 m 157 ft / 48 m
26R 151 ft / 46 m 9,885 ft / 3,013 m 260.86° 257.05° Asphalt 0 ft / 0 m 223 ft / 68 m

EDDC

Details ICAO EDDC (DRS)
Name Dresden
Region Germany - Civil
Timezone Europe/Berlin (UTC+2.0)
Stats Elevation 752 ft / 229 m (AMSL)
Location 51.134366° 13.768065°
Runways 1
Magnetic Variation 3.856° E

METAR

EDDC 250150Z 08004KT CAVOK 16/10 Q1020

Decode

TAF

TAF EDDC 242300Z 2500/2524 07006KT CAVOK BECMG 2508/2510 07011KT BECMG 2516/2518 07006KT

Decode

Destination Runways

ID Width Length Bearing (true) Bearing (mag) Surface Threshold Offset Overrun Length
04 197 ft / 60 m 9,348 ft / 2,849 m 40.74° 36.88° Concrete 0 ft / 0 m 0 ft / 0 m
22 197 ft / 60 m 9,348 ft / 2,849 m 220.76° 216.90° Concrete 984 ft / 300 m 0 ft / 0 m

Approach Navaids

Runway Type Ident Frequency Range Bearing (true) Bearing (mag) Slope Elevation
04 Localiser IDRE 110.50 MHz 18 nm / 33 km 40.83° 36.97° - 703 ft / 214 m (AMSL)
04 Glidescope IDRE 110.50 MHz 10 nm / 19 km 40.83° 36.97° 3.00° 755 ft / 230 m (AMSL)
22 Localiser IDRW 109.70 MHz 18 nm / 33 km 220.81° 216.95° - 755 ft / 230 m (AMSL)
22 Glidescope IDRW 109.70 MHz 10 nm / 19 km 220.81° 216.95° 3.00° 703 ft / 214 m (AMSL)

Popular Alternatives